sensor_id;sensor_type;location;lat;lon;timestamp;temperature;humidity
27978;DHT22;15314;49.248;6.968;2023-02-13T00:00:45;7.20;99.90
27978;DHT22;15314;49.248;6.968;2023-02-13T00:01:46;7.30;99.90
27978;DHT22;15314;49.248;6.968;2023-02-13T00:02:46;7.20;99.90
27978;DHT22;15314;49.248;6.968;2023-02-13T00:03:47;7.20;99.90
27978;DHT22;15314;49.248;6.968;2023-02-13T00:04:47;7.10;99.90
27978;DHT22;15314;49.248;6.968;2023-02-13T00:05:48;7.10;99.90
27978;DHT22;15314;49.248;6.968;2023-02-13T00:06:49;7.10;99.90
27978;DHT22;15314;49.248;6.968;2023-02-13T00:07:49;7.00;99.90
27978;DHT22;15314;49.248;6.968;2023-02-13T00:08:50;7.00;99.90
27978;DHT22;15314;49.248;6.968;2023-02-13T00:09:51;7.00;99.90
27978;DHT22;15314;49.248;6.968;2023-02-13T00:10:51;7.10;99.90
27978;DHT22;15314;49.248;6.968;2023-02-13T00:11:52;7.00;99.90
27978;DHT22;15314;49.248;6.968;2023-02-13T00:12:53;7.00;99.90
27978;DHT22;15314;49.248;6.968;2023-02-13T00:13:53;7.00;99.90
27978;DHT22;15314;49.248;6.968;2023-02-13T00:14:54;7.00;99.90
27978;DHT22;15314;49.248;6.968;2023-02-13T00:15:56;7.00;99.90
27978;DHT22;15314;49.248;6.968;2023-02-13T00:16:57;7.10;99.90
27978;DHT22;15314;49.248;6.968;2023-02-13T00:17:58;7.10;99.90
27978;DHT22;15314;49.248;6.968;2023-02-13T00:18:58;7.10;99.90
27978;DHT22;15314;49.248;6.968;2023-02-13T00:19:59;7.10;99.90
27978;DHT22;15314;49.248;6.968;2023-02-13T00:21:02;7.00;99.90
27978;DHT22;15314;49.248;6.968;2023-02-13T00:22:03;7.00;99.90
27978;DHT22;15314;49.248;6.968;2023-02-13T00:23:04;7.00;99.90
27978;DHT22;15314;49.248;6.968;2023-02-13T00:24:04;7.00;99.90
27978;DHT22;15314;49.248;6.968;2023-02-13T00:25:06;7.00;99.90
27978;DHT22;15314;49.248;6.968;2023-02-13T00:26:10;7.00;99.90
27978;DHT22;15314;49.248;6.968;2023-02-13T00:27:11;7.00;99.90
27978;DHT22;15314;49.248;6.968;2023-02-13T00:28:12;7.00;99.90
27978;DHT22;15314;49.248;6.968;2023-02-13T00:29:15;7.20;99.90
27978;DHT22;15314;49.248;6.968;2023-02-13T00:30:16;7.00;99.90
27978;DHT22;15314;49.248;6.968;2023-02-13T00:31:19;7.10;99.90
27978;DHT22;15314;49.248;6.968;2023-02-13T00:32:20;7.10;99.90
27978;DHT22;15314;49.248;6.968;2023-02-13T00:33:20;7.10;99.90
27978;DHT22;15314;49.248;6.968;2023-02-13T00:34:21;7.10;99.90
27978;DHT22;15314;49.248;6.968;2023-02-13T00:35:22;7.10;99.90
27978;DHT22;15314;49.248;6.968;2023-02-13T00:36:23;7.10;99.90
27978;DHT22;15314;49.248;6.968;2023-02-13T00:37:24;7.10;99.90
27978;DHT22;15314;49.248;6.968;2023-02-13T00:38:25;7.10;99.90
27978;DHT22;15314;49.248;6.968;2023-02-13T00:39:25;7.10;99.90
27978;DHT22;15314;49.248;6.968;2023-02-13T00:40:26;7.10;99.90
27978;DHT22;15314;49.248;6.968;2023-02-13T00:41:27;7.10;99.90
27978;DHT22;15314;49.248;6.968;2023-02-13T00:42:27;7.10;99.90
27978;DHT22;15314;49.248;6.968;2023-02-13T00:43:28;7.10;99.90
27978;DHT22;15314;49.248;6.968;2023-02-13T00:44:29;7.10;99.90
27978;DHT22;15314;49.248;6.968;2023-02-13T00:45:30;7.10;99.90
27978;DHT22;15314;49.248;6.968;2023-02-13T00:46:30;7.10;99.90
27978;DHT22;15314;49.248;6.968;2023-02-13T00:47:31;7.10;99.90
27978;DHT22;15314;49.248;6.968;2023-02-13T00:48:33;7.30;99.90
27978;DHT22;15314;49.248;6.968;2023-02-13T00:49:34;7.10;99.90
27978;DHT22;15314;49.248;6.968;2023-02-13T00:50:34;7.00;99.90
27978;DHT22;15314;49.248;6.968;2023-02-13T00:51:35;7.00;99.90
27978;DHT22;15314;49.248;6.968;2023-02-13T00:52:35;7.00;99.90
27978;DHT22;15314;49.248;6.968;2023-02-13T00:53:37;7.00;99.90
27978;DHT22;15314;49.248;6.968;2023-02-13T00:54:37;7.00;99.90
27978;DHT22;15314;49.248;6.968;2023-02-13T00:55:38;6.90;99.90
27978;DHT22;15314;49.248;6.968;2023-02-13T00:56:39;6.90;99.90
27978;DHT22;15314;49.248;6.968;2023-02-13T00:57:39;6.90;99.90
27978;DHT22;15314;49.248;6.968;2023-02-13T00:58:40;6.90;99.90
27978;DHT22;15314;49.248;6.968;2023-02-13T00:59:40;6.80;99.90
27978;DHT22;15314;49.248;6.968;2023-02-13T01:00:42;6.80;99.90
27978;DHT22;15314;49.248;6.968;2023-02-13T01:01:43;6.70;99.90
27978;DHT22;15314;49.248;6.968;2023-02-13T01:02:43;6.70;99.90
27978;DHT22;15314;49.248;6.968;2023-02-13T01:03:44;6.70;99.90
27978;DHT22;15314;49.248;6.968;2023-02-13T01:04:45;6.70;99.90
27978;DHT22;15314;49.248;6.968;2023-02-13T01:05:46;6.60;99.90
27978;DHT22;15314;49.248;6.968;2023-02-13T01:06:47;6.60;99.90
27978;DHT22;15314;49.248;6.968;2023-02-13T01:07:48;6.50;99.90
27978;DHT22;15314;49.248;6.968;2023-02-13T01:08:49;6.60;99.90
27978;DHT22;15314;49.248;6.968;2023-02-13T01:09:49;6.50;99.90
27978;DHT22;15314;49.248;6.968;2023-02-13T01:10:50;6.50;99.90
27978;DHT22;15314;49.248;6.968;2023-02-13T01:11:51;6.40;99.90
27978;DHT22;15314;49.248;6.968;2023-02-13T01:12:52;6.40;99.90
27978;DHT22;15314;49.248;6.968;2023-02-13T01:13:53;6.40;99.90
27978;DHT22;15314;49.248;6.968;2023-02-13T01:14:53;6.30;99.90
27978;DHT22;15314;49.248;6.968;2023-02-13T01:15:55;6.30;99.90
27978;DHT22;15314;49.248;6.968;2023-02-13T01:16:55;6.30;99.90
27978;DHT22;15314;49.248;6.968;2023-02-13T01:17:56;6.30;99.90
27978;DHT22;15314;49.248;6.968;2023-02-13T01:18:57;6.30;99.90
27978;DHT22;15314;49.248;6.968;2023-02-13T01:19:57;6.30;99.90
27978;DHT22;15314;49.248;6.968;2023-02-13T01:21:06;6.30;99.90
27978;DHT22;15314;49.248;6.968;2023-02-13T01:22:07;6.20;99.90
27978;DHT22;15314;49.248;6.968;2023-02-13T01:23:09;6.20;99.90
27978;DHT22;15314;49.248;6.968;2023-02-13T01:24:10;6.20;99.90
27978;DHT22;15314;49.248;6.968;2023-02-13T01:25:10;6.20;99.90
27978;DHT22;15314;49.248;6.968;2023-02-13T01:26:17;6.20;99.90
27978;DHT22;15314;49.248;6.968;2023-02-13T01:27:18;6.20;99.90
27978;DHT22;15314;49.248;6.968;2023-02-13T01:28:19;6.10;99.90
27978;DHT22;15314;49.248;6.968;2023-02-13T01:29:20;6.10;99.90
27978;DHT22;15314;49.248;6.968;2023-02-13T01:30:20;6.10;99.90
27978;DHT22;15314;49.248;6.968;2023-02-13T01:31:21;6.20;99.90
27978;DHT22;15314;49.248;6.968;2023-02-13T01:32:21;6.10;99.90
27978;DHT22;15314;49.248;6.968;2023-02-13T01:33:24;6.10;99.90
27978;DHT22;15314;49.248;6.968;2023-02-13T01:34:24;6.10;99.90
27978;DHT22;15314;49.248;6.968;2023-02-13T01:35:25;6.10;99.90
27978;DHT22;15314;49.248;6.968;2023-02-13T01:36:26;6.10;99.90
27978;DHT22;15314;49.248;6.968;2023-02-13T01:37:27;6.10;99.90
27978;DHT22;15314;49.248;6.968;2023-02-13T01:38:29;6.00;99.90
27978;DHT22;15314;49.248;6.968;2023-02-13T01:39:29;6.00;99.90
27978;DHT22;15314;49.248;6.968;2023-02-13T01:40:30;6.00;99.90
27978;DHT22;15314;49.248;6.968;2023-02-13T01:41:31;6.00;99.90
27978;DHT22;15314;49.248;6.968;2023-02-13T01:42:33;5.90;99.90
27978;DHT22;15314;49.248;6.968;2023-02-13T01:44:54;6.00;99.90
27978;DHT22;15314;49.248;6.968;2023-02-13T01:45:56;6.00;99.90
27978;DHT22;15314;49.248;6.968;2023-02-13T01:46:57;6.00;99.90
27978;DHT22;15314;49.248;6.968;2023-02-13T01:48:07;6.00;99.90
27978;DHT22;15314;49.248;6.968;2023-02-13T01:49:20;6.00;99.90
27978;DHT22;15314;49.248;6.968;2023-02-13T01:50:48;6.00;99.90
27978;DHT22;15314;49.248;6.968;2023-02-13T01:51:54;6.00;99.90
27978;DHT22;15314;49.248;6.968;2023-02-13T01:54:30;6.00;99.90
27978;DHT22;15314;49.248;6.968;2023-02-13T01:55:36;5.90;99.90
27978;DHT22;15314;49.248;6.968;2023-02-13T01:56:42;5.90;99.90
27978;DHT22;15314;49.248;6.968;2023-02-13T01:57:48;5.90;99.90
27978;DHT22;15314;49.248;6.968;2023-02-13T01:58:52;5.90;99.90
27978;DHT22;15314;49.248;6.968;2023-02-13T02:00:05;5.90;99.90
27978;DHT22;15314;49.248;6.968;2023-02-13T02:01:07;5.90;99.90
27978;DHT22;15314;49.248;6.968;2023-02-13T02:02:09;5.90;99.90
27978;DHT22;15314;49.248;6.968;2023-02-13T02:03:14;5.90;99.90
27978;DHT22;15314;49.248;6.968;2023-02-13T02:04:26;5.90;99.90
27978;DHT22;15314;49.248;6.968;2023-02-13T02:05:29;5.90;99.90
27978;DHT22;15314;49.248;6.968;2023-02-13T02:06:41;5.80;99.90
27978;DHT22;15314;49.248;6.968;2023-02-13T02:07:46;5.80;99.90
27978;DHT22;15314;49.248;6.968;2023-02-13T02:08:48;5.80;99.90
27978;DHT22;15314;49.248;6.968;2023-02-13T02:09:51;5.80;99.90
27978;DHT22;15314;49.248;6.968;2023-02-13T02:10:54;5.80;99.90
27978;DHT22;15314;49.248;6.968;2023-02-13T02:12:21;5.70;99.90
27978;DHT22;15314;49.248;6.968;2023-02-13T02:13:25;5.70;99.90
27978;DHT22;15314;49.248;6.968;2023-02-13T02:14:26;5.70;99.90
27978;DHT22;15314;49.248;6.968;2023-02-13T02:15:27;5.70;99.90
27978;DHT22;15314;49.248;6.968;2023-02-13T02:16:28;5.60;99.90
27978;DHT22;15314;49.248;6.968;2023-02-13T02:17:30;5.60;99.90
27978;DHT22;15314;49.248;6.968;2023-02-13T02:18:31;5.70;99.90
27978;DHT22;15314;49.248;6.968;2023-02-13T02:19:55;5.60;99.90
27978;DHT22;15314;49.248;6.968;2023-02-13T02:21:28;5.60;99.90
27978;DHT22;15314;49.248;6.968;2023-02-13T02:24:09;5.60;99.90
27978;DHT22;15314;49.248;6.968;2023-02-13T02:33:20;5.40;99.90
27978;DHT22;15314;49.248;6.968;2023-02-13T02:34:39;5.40;99.90
27978;DHT22;15314;49.248;6.968;2023-02-13T02:36:04;5.40;99.90
27978;DHT22;15314;49.248;6.968;2023-02-13T02:38:33;5.50;99.90
27978;DHT22;15314;49.248;6.968;2023-02-13T02:46:39;5.50;99.90
27978;DHT22;15314;49.248;6.968;2023-02-13T02:49:37;5.50;99.90
27978;DHT22;15314;49.248;6.968;2023-02-13T02:51:05;5.40;99.90
27978;DHT22;15314;49.248;6.968;2023-02-13T02:52:17;5.40;99.90
27978;DHT22;15314;49.248;6.968;2023-02-13T02:55:34;5.40;99.90
27978;DHT22;15314;49.248;6.968;2023-02-13T02:56:40;5.30;99.90
27978;DHT22;15314;49.248;6.968;2023-02-13T02:57:48;5.30;99.90
27978;DHT22;15314;49.248;6.968;2023-02-13T02:59:14;5.30;99.90
27978;DHT22;15314;49.248;6.968;2023-02-13T03:00:37;5.20;99.90
27978;DHT22;15314;49.248;6.968;2023-02-13T03:02:17;5.30;99.90
27978;DHT22;15314;49.248;6.968;2023-02-13T03:03:37;5.40;99.90
27978;DHT22;15314;49.248;6.968;2023-02-13T03:04:58;5.30;99.90
27978;DHT22;15314;49.248;6.968;2023-02-13T03:06:24;5.30;99.90
27978;DHT22;15314;49.248;6.968;2023-02-13T03:07:26;5.30;99.90
27978;DHT22;15314;49.248;6.968;2023-02-13T03:08:28;5.30;99.90
27978;DHT22;15314;49.248;6.968;2023-02-13T03:09:51;5.30;99.90
27978;DHT22;15314;49.248;6.968;2023-02-13T03:11:10;5.30;99.90
27978;DHT22;15314;49.248;6.968;2023-02-13T03:12:37;5.30;99.90
27978;DHT22;15314;49.248;6.968;2023-02-13T03:13:59;5.30;99.90
27978;DHT22;15314;49.248;6.968;2023-02-13T03:15:03;5.40;99.90
27978;DHT22;15314;49.248;6.968;2023-02-13T03:16:04;5.40;99.90
27978;DHT22;15314;49.248;6.968;2023-02-13T03:17:24;5.40;99.90
27978;DHT22;15314;49.248;6.968;2023-02-13T03:18:49;5.40;99.90
27978;DHT22;15314;49.248;6.968;2023-02-13T03:20:31;5.40;99.90
27978;DHT22;15314;49.248;6.968;2023-02-13T03:22:05;5.50;99.90
27978;DHT22;15314;49.248;6.968;2023-02-13T03:25:46;5.40;99.90
27978;DHT22;15314;49.248;6.968;2023-02-13T03:28:10;5.40;99.90
27978;DHT22;15314;49.248;6.968;2023-02-13T03:29:43;5.40;99.90
27978;DHT22;15314;49.248;6.968;2023-02-13T03:34:35;5.30;99.90
27978;DHT22;15314;49.248;6.968;2023-02-13T03:37:42;5.30;99.90
27978;DHT22;15314;49.248;6.968;2023-02-13T03:41:29;5.20;99.90
27978;DHT22;15314;49.248;6.968;2023-02-13T03:42:45;5.20;99.90
27978;DHT22;15314;49.248;6.968;2023-02-13T03:45:09;5.10;99.90
27978;DHT22;15314;49.248;6.968;2023-02-13T03:46:33;5.10;99.90
27978;DHT22;15314;49.248;6.968;2023-02-13T03:47:36;5.10;99.90
27978;DHT22;15314;49.248;6.968;2023-02-13T03:48:39;5.10;99.90
27978;DHT22;15314;49.248;6.968;2023-02-13T03:49:59;5.10;99.90
27978;DHT22;15314;49.248;6.968;2023-02-13T03:51:07;5.10;99.90
27978;DHT22;15314;49.248;6.968;2023-02-13T03:53:25;5.10;99.90
27978;DHT22;15314;49.248;6.968;2023-02-13T03:55:59;5.10;99.90
27978;DHT22;15314;49.248;6.968;2023-02-13T03:57:21;5.10;99.90
27978;DHT22;15314;49.248;6.968;2023-02-13T03:58:45;5.10;99.90
27978;DHT22;15314;49.248;6.968;2023-02-13T04:00:11;5.10;99.90
27978;DHT22;15314;49.248;6.968;2023-02-13T04:01:17;5.10;99.90
27978;DHT22;15314;49.248;6.968;2023-02-13T04:02:23;5.10;99.90
27978;DHT22;15314;49.248;6.968;2023-02-13T04:04:53;5.00;99.90
27978;DHT22;15314;49.248;6.968;2023-02-13T04:06:08;5.00;99.90
27978;DHT22;15314;49.248;6.968;2023-02-13T04:07:16;5.00;99.90
27978;DHT22;15314;49.248;6.968;2023-02-13T04:08:28;5.00;99.90
27978;DHT22;15314;49.248;6.968;2023-02-13T04:09:30;5.00;99.90
27978;DHT22;15314;49.248;6.968;2023-02-13T04:10:36;5.00;99.90
27978;DHT22;15314;49.248;6.968;2023-02-13T04:13:36;5.00;99.90
27978;DHT22;15314;49.248;6.968;2023-02-13T04:16:15;5.10;99.90
27978;DHT22;15314;49.248;6.968;2023-02-13T04:17:22;5.10;99.90
27978;DHT22;15314;49.248;6.968;2023-02-13T04:18:27;5.10;99.90
27978;DHT22;15314;49.248;6.968;2023-02-13T04:19:31;5.00;99.90
27978;DHT22;15314;49.248;6.968;2023-02-13T04:20:31;5.00;99.90
27978;DHT22;15314;49.248;6.968;2023-02-13T04:21:34;5.00;99.90
27978;DHT22;15314;49.248;6.968;2023-02-13T04:22:41;4.90;99.90
27978;DHT22;15314;49.248;6.968;2023-02-13T04:23:42;4.90;99.90
27978;DHT22;15314;49.248;6.968;2023-02-13T04:24:43;4.90;99.90
27978;DHT22;15314;49.248;6.968;2023-02-13T04:25:47;4.90;99.90
27978;DHT22;15314;49.248;6.968;2023-02-13T04:26:48;4.90;99.90
27978;DHT22;15314;49.248;6.968;2023-02-13T04:27:49;5.00;99.90
27978;DHT22;15314;49.248;6.968;2023-02-13T04:28:50;5.00;99.90
27978;DHT22;15314;49.248;6.968;2023-02-13T04:29:50;5.00;99.90
27978;DHT22;15314;49.248;6.968;2023-02-13T04:30:51;5.00;99.90
27978;DHT22;15314;49.248;6.968;2023-02-13T04:31:52;5.00;99.90
27978;DHT22;15314;49.248;6.968;2023-02-13T04:32:52;5.00;99.90
27978;DHT22;15314;49.248;6.968;2023-02-13T04:33:53;5.10;99.90
27978;DHT22;15314;49.248;6.968;2023-02-13T04:34:53;5.00;99.90
27978;DHT22;15314;49.248;6.968;2023-02-13T04:35:54;5.00;99.90
27978;DHT22;15314;49.248;6.968;2023-02-13T04:36:56;5.00;99.90
27978;DHT22;15314;49.248;6.968;2023-02-13T04:37:56;5.00;99.90
27978;DHT22;15314;49.248;6.968;2023-02-13T04:38:57;5.00;99.90
27978;DHT22;15314;49.248;6.968;2023-02-13T04:39:57;5.00;99.90
27978;DHT22;15314;49.248;6.968;2023-02-13T04:40:58;5.00;99.90
27978;DHT22;15314;49.248;6.968;2023-02-13T04:41:59;5.00;99.90
27978;DHT22;15314;49.248;6.968;2023-02-13T04:43:00;5.00;99.90
27978;DHT22;15314;49.248;6.968;2023-02-13T04:44:00;5.00;99.90
27978;DHT22;15314;49.248;6.968;2023-02-13T04:45:01;5.00;99.90
27978;DHT22;15314;49.248;6.968;2023-02-13T04:46:02;5.00;99.90
27978;DHT22;15314;49.248;6.968;2023-02-13T04:47:03;5.00;99.90
27978;DHT22;15314;49.248;6.968;2023-02-13T04:48:03;5.00;99.90
27978;DHT22;15314;49.248;6.968;2023-02-13T04:49:04;5.00;99.90
27978;DHT22;15314;49.248;6.968;2023-02-13T04:50:05;5.10;99.90
27978;DHT22;15314;49.248;6.968;2023-02-13T04:51:06;5.00;99.90
27978;DHT22;15314;49.248;6.968;2023-02-13T04:52:06;5.00;99.90
27978;DHT22;15314;49.248;6.968;2023-02-13T04:53:07;5.00;99.90
27978;DHT22;15314;49.248;6.968;2023-02-13T04:54:08;5.00;99.90
27978;DHT22;15314;49.248;6.968;2023-02-13T04:55:09;5.00;99.90
27978;DHT22;15314;49.248;6.968;2023-02-13T04:56:10;4.90;99.90
27978;DHT22;15314;49.248;6.968;2023-02-13T04:57:10;4.90;99.90
27978;DHT22;15314;49.248;6.968;2023-02-13T04:58:11;4.90;99.90
27978;DHT22;15314;49.248;6.968;2023-02-13T04:59:12;5.00;99.90
27978;DHT22;15314;49.248;6.968;2023-02-13T05:00:13;5.00;99.90
27978;DHT22;15314;49.248;6.968;2023-02-13T05:01:15;5.00;99.90
27978;DHT22;15314;49.248;6.968;2023-02-13T05:02:16;4.90;99.90
27978;DHT22;15314;49.248;6.968;2023-02-13T05:03:17;4.90;99.90
27978;DHT22;15314;49.248;6.968;2023-02-13T05:04:17;4.90;99.90
27978;DHT22;15314;49.248;6.968;2023-02-13T05:05:19;4.90;99.90
27978;DHT22;15314;49.248;6.968;2023-02-13T05:06:20;4.90;99.90
27978;DHT22;15314;49.248;6.968;2023-02-13T05:07:20;4.90;99.90
27978;DHT22;15314;49.248;6.968;2023-02-13T05:08:21;4.90;99.90
27978;DHT22;15314;49.248;6.968;2023-02-13T05:09:21;4.90;99.90
27978;DHT22;15314;49.248;6.968;2023-02-13T05:10:22;4.90;99.90
27978;DHT22;15314;49.248;6.968;2023-02-13T05:11:22;4.80;99.90
27978;DHT22;15314;49.248;6.968;2023-02-13T05:12:23;5.00;99.90
27978;DHT22;15314;49.248;6.968;2023-02-13T05:13:24;4.80;99.90
27978;DHT22;15314;49.248;6.968;2023-02-13T05:14:24;4.80;99.90
27978;DHT22;15314;49.248;6.968;2023-02-13T05:15:25;4.80;99.90
27978;DHT22;15314;49.248;6.968;2023-02-13T05:16:26;5.00;99.90
27978;DHT22;15314;49.248;6.968;2023-02-13T05:17:26;4.80;99.90
27978;DHT22;15314;49.248;6.968;2023-02-13T05:18:27;4.90;99.90
27978;DHT22;15314;49.248;6.968;2023-02-13T05:19:27;4.80;99.90
27978;DHT22;15314;49.248;6.968;2023-02-13T05:20:28;4.80;99.90
27978;DHT22;15314;49.248;6.968;2023-02-13T05:21:29;4.80;99.90
27978;DHT22;15314;49.248;6.968;2023-02-13T05:22:52;4.80;99.90
27978;DHT22;15314;49.248;6.968;2023-02-13T05:24:11;4.80;99.90
27978;DHT22;15314;49.248;6.968;2023-02-13T05:25:12;4.80;99.90
27978;DHT22;15314;49.248;6.968;2023-02-13T05:26:13;4.70;99.90
27978;DHT22;15314;49.248;6.968;2023-02-13T05:27:13;4.70;99.90
27978;DHT22;15314;49.248;6.968;2023-02-13T05:28:15;4.70;99.90
27978;DHT22;15314;49.248;6.968;2023-02-13T05:29:34;4.70;99.90
27978;DHT22;15314;49.248;6.968;2023-02-13T05:30:35;4.60;99.90
27978;DHT22;15314;49.248;6.968;2023-02-13T05:31:35;4.60;99.90
27978;DHT22;15314;49.248;6.968;2023-02-13T05:32:36;4.60;99.90
27978;DHT22;15314;49.248;6.968;2023-02-13T05:33:37;4.60;99.90
27978;DHT22;15314;49.248;6.968;2023-02-13T05:34:37;4.60;99.90
27978;DHT22;15314;49.248;6.968;2023-02-13T05:35:38;4.60;99.90
27978;DHT22;15314;49.248;6.968;2023-02-13T05:36:38;4.60;99.90
27978;DHT22;15314;49.248;6.968;2023-02-13T05:37:39;4.60;99.90
27978;DHT22;15314;49.248;6.968;2023-02-13T05:38:40;4.60;99.90
27978;DHT22;15314;49.248;6.968;2023-02-13T05:39:40;4.60;99.90
27978;DHT22;15314;49.248;6.968;2023-02-13T05:40:41;4.60;99.90
27978;DHT22;15314;49.248;6.968;2023-02-13T05:41:43;4.60;99.90
27978;DHT22;15314;49.248;6.968;2023-02-13T05:42:44;4.60;99.90
27978;DHT22;15314;49.248;6.968;2023-02-13T05:43:44;4.60;99.90
27978;DHT22;15314;49.248;6.968;2023-02-13T05:44:45;4.60;99.90
27978;DHT22;15314;49.248;6.968;2023-02-13T05:45:45;4.50;99.90
27978;DHT22;15314;49.248;6.968;2023-02-13T05:46:47;4.50;99.90
27978;DHT22;15314;49.248;6.968;2023-02-13T05:47:48;4.50;99.90
27978;DHT22;15314;49.248;6.968;2023-02-13T05:48:50;4.50;99.90
27978;DHT22;15314;49.248;6.968;2023-02-13T05:49:50;4.50;99.90
27978;DHT22;15314;49.248;6.968;2023-02-13T05:50:51;4.50;99.90
27978;DHT22;15314;49.248;6.968;2023-02-13T05:51:51;4.50;99.90
27978;DHT22;15314;49.248;6.968;2023-02-13T05:52:52;4.40;99.90
27978;DHT22;15314;49.248;6.968;2023-02-13T05:53:52;4.40;99.90
27978;DHT22;15314;49.248;6.968;2023-02-13T05:54:53;4.40;99.90
27978;DHT22;15314;49.248;6.968;2023-02-13T05:55:54;4.40;99.90
27978;DHT22;15314;49.248;6.968;2023-02-13T05:56:54;4.40;99.90
27978;DHT22;15314;49.248;6.968;2023-02-13T05:57:56;4.40;99.90
27978;DHT22;15314;49.248;6.968;2023-02-13T05:58:57;4.30;99.90
27978;DHT22;15314;49.248;6.968;2023-02-13T05:59:57;4.40;99.90
27978;DHT22;15314;49.248;6.968;2023-02-13T06:00:59;4.40;99.90
27978;DHT22;15314;49.248;6.968;2023-02-13T06:01:59;4.40;99.90
27978;DHT22;15314;49.248;6.968;2023-02-13T06:03:00;4.30;99.90
27978;DHT22;15314;49.248;6.968;2023-02-13T06:04:01;4.40;99.90
27978;DHT22;15314;49.248;6.968;2023-02-13T06:05:01;4.40;99.90
27978;DHT22;15314;49.248;6.968;2023-02-13T06:06:02;4.40;99.90
27978;DHT22;15314;49.248;6.968;2023-02-13T06:07:03;4.40;99.90
27978;DHT22;15314;49.248;6.968;2023-02-13T06:08:04;4.40;99.90
27978;DHT22;15314;49.248;6.968;2023-02-13T06:09:04;4.40;99.90
27978;DHT22;15314;49.248;6.968;2023-02-13T06:10:05;4.40;99.90
27978;DHT22;15314;49.248;6.968;2023-02-13T06:11:06;4.40;99.90
27978;DHT22;15314;49.248;6.968;2023-02-13T06:12:07;4.30;99.90
27978;DHT22;15314;49.248;6.968;2023-02-13T06:13:08;4.30;99.90
27978;DHT22;15314;49.248;6.968;2023-02-13T06:14:10;4.30;99.90
27978;DHT22;15314;49.248;6.968;2023-02-13T06:15:10;4.30;99.90
27978;DHT22;15314;49.248;6.968;2023-02-13T06:16:11;4.30;99.90
27978;DHT22;15314;49.248;6.968;2023-02-13T06:17:12;4.30;99.90
27978;DHT22;15314;49.248;6.968;2023-02-13T06:18:13;4.30;99.90
27978;DHT22;15314;49.248;6.968;2023-02-13T06:19:13;4.30;99.90
27978;DHT22;15314;49.248;6.968;2023-02-13T06:20:14;4.30;99.90
27978;DHT22;15314;49.248;6.968;2023-02-13T06:21:15;4.30;99.90
27978;DHT22;15314;49.248;6.968;2023-02-13T06:22:15;4.30;99.90
27978;DHT22;15314;49.248;6.968;2023-02-13T06:23:16;4.30;99.90
27978;DHT22;15314;49.248;6.968;2023-02-13T06:24:16;4.30;99.90
27978;DHT22;15314;49.248;6.968;2023-02-13T06:25:17;4.30;99.90
27978;DHT22;15314;49.248;6.968;2023-02-13T06:26:18;4.30;99.90
27978;DHT22;15314;49.248;6.968;2023-02-13T06:27:18;4.30;99.90
27978;DHT22;15314;49.248;6.968;2023-02-13T06:28:19;4.30;99.90
27978;DHT22;15314;49.248;6.968;2023-02-13T06:29:20;4.30;99.90
27978;DHT22;15314;49.248;6.968;2023-02-13T06:30:21;4.30;99.90
27978;DHT22;15314;49.248;6.968;2023-02-13T06:31:22;4.30;99.90
27978;DHT22;15314;49.248;6.968;2023-02-13T06:32:22;4.20;99.90
27978;DHT22;15314;49.248;6.968;2023-02-13T06:33:23;4.30;99.90
27978;DHT22;15314;49.248;6.968;2023-02-13T06:34:23;4.30;99.90
27978;DHT22;15314;49.248;6.968;2023-02-13T06:35:24;4.30;99.90
27978;DHT22;15314;49.248;6.968;2023-02-13T06:36:25;4.30;99.90
27978;DHT22;15314;49.248;6.968;2023-02-13T06:37:26;4.30;99.90
27978;DHT22;15314;49.248;6.968;2023-02-13T06:38:26;4.30;99.90
27978;DHT22;15314;49.248;6.968;2023-02-13T06:39:27;4.30;99.90
27978;DHT22;15314;49.248;6.968;2023-02-13T06:40:27;4.30;99.90
27978;DHT22;15314;49.248;6.968;2023-02-13T06:41:28;4.30;99.90
27978;DHT22;15314;49.248;6.968;2023-02-13T06:42:29;4.30;99.90
27978;DHT22;15314;49.248;6.968;2023-02-13T06:43:29;4.30;99.90
27978;DHT22;15314;49.248;6.968;2023-02-13T06:44:30;4.40;99.90
27978;DHT22;15314;49.248;6.968;2023-02-13T06:45:31;4.30;99.90
27978;DHT22;15314;49.248;6.968;2023-02-13T06:46:32;4.40;99.90
27978;DHT22;15314;49.248;6.968;2023-02-13T06:47:32;4.50;99.90
27978;DHT22;15314;49.248;6.968;2023-02-13T06:48:33;4.30;99.90
27978;DHT22;15314;49.248;6.968;2023-02-13T06:49:34;4.30;99.90
27978;DHT22;15314;49.248;6.968;2023-02-13T06:50:35;4.40;99.90
27978;DHT22;15314;49.248;6.968;2023-02-13T06:51:35;4.30;99.90
27978;DHT22;15314;49.248;6.968;2023-02-13T06:52:36;4.30;99.90
27978;DHT22;15314;49.248;6.968;2023-02-13T06:53:37;4.40;99.90
27978;DHT22;15314;49.248;6.968;2023-02-13T06:54:38;4.40;99.90
27978;DHT22;15314;49.248;6.968;2023-02-13T06:55:39;4.40;99.90
27978;DHT22;15314;49.248;6.968;2023-02-13T06:56:40;4.40;99.90
27978;DHT22;15314;49.248;6.968;2023-02-13T06:57:41;4.50;99.90
27978;DHT22;15314;49.248;6.968;2023-02-13T06:58:42;4.50;99.90
27978;DHT22;15314;49.248;6.968;2023-02-13T06:59:43;4.40;99.90
27978;DHT22;15314;49.248;6.968;2023-02-13T07:00:43;4.50;99.90
27978;DHT22;15314;49.248;6.968;2023-02-13T07:01:44;4.50;99.90
27978;DHT22;15314;49.248;6.968;2023-02-13T07:02:46;4.60;99.90
27978;DHT22;15314;49.248;6.968;2023-02-13T07:03:46;4.60;99.90
27978;DHT22;15314;49.248;6.968;2023-02-13T07:04:48;4.60;99.90
27978;DHT22;15314;49.248;6.968;2023-02-13T07:05:48;4.70;99.90
27978;DHT22;15314;49.248;6.968;2023-02-13T07:06:53;4.70;99.90
27978;DHT22;15314;49.248;6.968;2023-02-13T07:07:54;4.80;99.90
27978;DHT22;15314;49.248;6.968;2023-02-13T07:08:55;4.90;99.90
27978;DHT22;15314;49.248;6.968;2023-02-13T07:09:55;5.00;99.90
27978;DHT22;15314;49.248;6.968;2023-02-13T07:10:56;5.10;99.90
27978;DHT22;15314;49.248;6.968;2023-02-13T07:11:57;5.10;99.90
27978;DHT22;15314;49.248;6.968;2023-02-13T07:12:57;5.10;99.90
27978;DHT22;15314;49.248;6.968;2023-02-13T07:13:58;5.10;99.90
27978;DHT22;15314;49.248;6.968;2023-02-13T07:14:59;5.10;99.90
27978;DHT22;15314;49.248;6.968;2023-02-13T07:16:00;5.20;99.90
27978;DHT22;15314;49.248;6.968;2023-02-13T07:17:00;5.30;99.90
27978;DHT22;15314;49.248;6.968;2023-02-13T07:18:02;5.30;99.90
27978;DHT22;15314;49.248;6.968;2023-02-13T07:19:03;5.30;99.90
27978;DHT22;15314;49.248;6.968;2023-02-13T07:20:04;5.40;99.90
27978;DHT22;15314;49.248;6.968;2023-02-13T07:21:06;5.40;99.90
27978;DHT22;15314;49.248;6.968;2023-02-13T07:22:06;5.40;99.90
27978;DHT22;15314;49.248;6.968;2023-02-13T07:23:07;5.40;99.90
27978;DHT22;15314;49.248;6.968;2023-02-13T07:24:08;5.40;99.90
27978;DHT22;15314;49.248;6.968;2023-02-13T07:25:08;5.40;99.90
27978;DHT22;15314;49.248;6.968;2023-02-13T07:26:09;5.40;99.90
27978;DHT22;15314;49.248;6.968;2023-02-13T07:27:10;5.40;99.90
27978;DHT22;15314;49.248;6.968;2023-02-13T07:28:11;5.50;99.90
27978;DHT22;15314;49.248;6.968;2023-02-13T07:29:13;5.60;99.90
27978;DHT22;15314;49.248;6.968;2023-02-13T07:30:13;5.50;99.90
27978;DHT22;15314;49.248;6.968;2023-02-13T07:31:14;5.60;99.90
27978;DHT22;15314;49.248;6.968;2023-02-13T07:32:15;5.60;99.90
27978;DHT22;15314;49.248;6.968;2023-02-13T07:33:15;5.70;99.90
27978;DHT22;15314;49.248;6.968;2023-02-13T07:34:16;5.70;99.90